Time;durP1;ratioP1;P1;durP2;ratioP2;P2;SDS_P1;SDS_P2;PMS_P1;PMS_P2;Temp;Humidity;BMP_temperature;BMP_pressure;BME280_temperature;BME280_humidity;BME280_pressure;Samples;Min_cycle;Max_cycle;Signal;HPM_P1;HPM_P2
2022/07/11 00:00:15;;;;;;;;;;;;;;;11.71;66.13;100833.63;1767785;81;21177;-80
2022/07/11 00:02:43;;;;;;;;;;;;;;;11.68;66.17;100820.58;1769830;81;20141;-79
2022/07/11 00:05:09;;;;;;;;;;;;;;;11.67;66.17;100825.58;1751881;81;20189;-79
2022/07/11 00:07:36;;;;;;;;;;;;;;;11.66;66.18;100821.22;1727660;81;20453;-80
2022/07/11 00:10:03;;;;;;;;;;;;;;;11.65;66.18;100817.71;1746505;81;20156;-80
2022/07/11 00:12:29;;;;;;;;;;;;;;;11.64;66.19;100815.23;1770053;81;21075;-80
2022/07/11 00:14:55;;;;;;;;;;;;;;;11.63;66.17;100809.54;1773799;80;20175;-80
2022/07/11 00:17:21;;;;;;;;;;;;;;;11.61;66.18;100808.36;1769645;80;20192;-80
2022/07/11 00:19:47;;;;;;;;;;;;;;;11.58;66.18;100813.20;1772804;81;20171;-80
2022/07/11 00:22:13;;;;;;;;;;;;;;;11.57;66.18;100819.06;1768223;81;20297;-79
2022/07/11 00:24:38;;;;;;;;;;;;;;;11.51;66.19;100815.20;1732816;81;20915;-80
2022/07/11 00:27:05;;;;;;;;;;;;;;;11.47;66.20;100809.86;1773744;80;20163;-80
2022/07/11 00:29:31;;;;;;;;;;;;;;;11.42;66.22;100814.03;1774015;80;20168;-80
2022/07/11 00:31:57;;;;;;;;;;;;;;;11.38;66.23;100813.53;1774180;80;20176;-80
2022/07/11 00:34:23;;;;;;;;;;;;;;;11.34;66.23;100812.19;1772951;80;20180;-80
2022/07/11 00:36:49;;;;;;;;;;;;;;;11.29;66.23;100811.86;1761215;81;21913;-80
2022/07/11 00:39:15;;;;;;;;;;;;;;;11.22;66.24;100810.84;1762785;81;20265;-80
2022/07/11 00:41:41;;;;;;;;;;;;;;;11.17;66.27;100803.81;1756478;81;20524;-80
2022/07/11 00:44:07;;;;;;;;;;;;;;;11.14;66.30;100800.14;1747801;81;20412;-80
2022/07/11 00:46:33;;;;;;;;;;;;;;;11.10;66.32;100807.30;1774188;80;20147;-80
2022/07/11 00:48:59;;;;;;;;;;;;;;;11.09;66.30;100805.61;1766548;81;21065;-80
2022/07/11 00:51:25;;;;;;;;;;;;;;;11.07;66.31;100806.29;1764980;81;20223;-80
2022/07/11 00:53:55;;;;;;;;;;;;;;;11.02;66.32;100805.44;1750543;80;20160;-80
2022/07/11 00:56:23;;;;;;;;;;;;;;;10.99;66.31;100805.77;1739985;81;20182;-80
2022/07/11 00:58:48;;;;;;;;;;;;;;;10.94;66.34;100801.44;1751411;81;20156;-80
2022/07/11 01:01:15;;;;;;;;;;;;;;;10.91;66.36;100800.39;1773993;81;21730;-80
2022/07/11 01:03:41;;;;;;;;;;;;;;;10.87;66.39;100795.88;1773111;80;20161;-79
2022/07/11 01:06:07;;;;;;;;;;;;;;;10.82;66.40;100790.22;1731251;81;20144;-79
2022/07/11 01:08:35;;;;;;;;;;;;;;;10.80;66.41;100792.71;1768066;81;20152;-80
2022/07/11 01:11:10;;;;;;;;;;;;;;;10.79;66.42;100792.37;1759918;80;20155;-79
2022/07/11 01:13:35;;;;;;;;;;;;;;;10.75;66.45;100791.86;1778478;80;21812;-80
2022/07/11 01:16:17;;;;;;;;;;;;;;;10.74;66.49;100798.67;1769877;80;20184;-79
2022/07/11 01:18:44;;;;;;;;;;;;;;;10.72;66.50;100792.18;1776490;80;20140;-80
2022/07/11 01:21:30;;;;;;;;;;;;;;;10.73;66.52;100794.36;1750373;80;20137;-80
2022/07/11 01:23:57;;;;;;;;;;;;;;;10.71;66.51;100792.33;1761099;80;20172;-79
2022/07/11 01:26:23;;;;;;;;;;;;;;;10.69;66.54;100793.00;1773654;80;21970;-80
2022/07/11 01:28:49;;;;;;;;;;;;;;;10.68;66.55;100796.16;1778136;80;20472;-79
2022/07/11 01:31:15;;;;;;;;;;;;;;;10.68;66.59;100792.16;1777387;80;20183;-80
2022/07/11 01:33:41;;;;;;;;;;;;;;;10.66;66.58;100794.66;1769677;80;20232;-79
2022/07/11 01:36:07;;;;;;;;;;;;;;;10.63;66.59;100788.28;1765379;80;20218;-80
2022/07/11 01:38:33;;;;;;;;;;;;;;;10.60;66.61;100789.95;1768982;80;21082;-80
2022/07/11 01:40:59;;;;;;;;;;;;;;;10.57;66.65;100787.61;1776965;80;20191;-80
2022/07/11 01:43:25;;;;;;;;;;;;;;;10.55;66.66;100796.28;1774743;80;20229;-80
2022/07/11 01:45:54;;;;;;;;;;;;;;;10.53;66.68;100789.75;1778670;80;20344;-79
2022/07/11 01:48:20;;;;;;;;;;;;;;;10.50;66.69;100786.08;1769138;80;20159;-79
2022/07/11 01:50:46;;;;;;;;;;;;;;;10.48;66.69;100786.23;1755294;80;21141;-80
2022/07/11 01:53:12;;;;;;;;;;;;;;;10.47;66.71;100792.58;1747566;80;20146;-80
2022/07/11 01:55:38;;;;;;;;;;;;;;;10.47;66.73;100791.24;1749491;80;20184;-80
2022/07/11 01:58:04;;;;;;;;;;;;;;;10.46;66.74;100787.39;1766160;80;20715;-79
2022/07/11 02:00:30;;;;;;;;;;;;;;;10.46;66.77;100792.23;1778742;80;20183;-79
2022/07/11 02:02:56;;;;;;;;;;;;;;;10.46;66.80;100785.56;1778692;80;21118;-79
2022/07/11 02:05:22;;;;;;;;;;;;;;;10.46;66.80;100785.56;1771140;80;20190;-80
2022/07/11 02:10:32;;;;;;;;;;;;;;;10.42;66.87;100786.88;1772885;80;20449;-80
2022/07/11 02:12:58;;;;;;;;;;;;;;;10.40;66.91;100786.21;1772399;80;20143;-80
2022/07/11 02:15:27;;;;;;;;;;;;;;;10.39;66.96;100785.86;1753823;81;21996;-80
2022/07/11 02:17:52;;;;;;;;;;;;;;;10.39;66.99;100783.20;1769267;80;20156;-80
2022/07/11 02:20:19;;;;;;;;;;;;;;;10.36;67.01;100786.19;1770963;80;20226;-80
2022/07/11 02:22:45;;;;;;;;;;;;;;;10.35;67.06;100787.17;1757553;81;20148;-80
2022/07/11 02:25:11;;;;;;;;;;;;;;;10.33;67.09;100781.17;1755386;81;20195;-80
2022/07/11 02:27:38;;;;;;;;;;;;;;;10.32;67.12;100784.83;1766455;81;21143;-79
2022/07/11 02:30:05;;;;;;;;;;;;;;;10.31;67.17;100788.48;1770666;81;20261;-80
2022/07/11 02:32:31;;;;;;;;;;;;;;;10.30;67.20;100788.66;1771108;81;20148;-80
2022/07/11 02:34:57;;;;;;;;;;;;;;;10.29;67.26;100786.48;1766161;81;20162;-80
2022/07/11 02:37:23;;;;;;;;;;;;;;;10.29;67.29;100789.64;1769158;81;20771;-80
2022/07/11 02:39:48;;;;;;;;;;;;;;;10.29;67.36;100790.48;1770435;81;21170;-80
2022/07/11 02:42:14;;;;;;;;;;;;;;;10.30;67.42;100787.33;1770816;81;20187;-79
2022/07/11 02:44:40;;;;;;;;;;;;;;;10.31;67.48;100792.48;1760342;80;20279;-80
2022/07/11 02:47:06;;;;;;;;;;;;;;;10.29;67.56;100788.30;1770367;81;20500;-80
2022/07/11 02:49:32;;;;;;;;;;;;;;;10.30;67.68;100789.50;1771131;81;20164;-80
2022/07/11 02:51:59;;;;;;;;;;;;;;;10.30;67.74;100789.98;1752916;81;21162;-80
2022/07/11 02:54:25;;;;;;;;;;;;;;;10.29;67.82;100788.30;1741448;81;20198;-80
2022/07/11 02:56:50;;;;;;;;;;;;;;;10.31;67.88;100796.47;1768734;81;20278;-79
2022/07/11 02:59:16;;;;;;;;;;;;;;;10.29;67.95;100789.14;1763334;81;20168;-80
2022/07/11 03:01:42;;;;;;;;;;;;;;;10.27;68.03;100788.48;1769465;81;20834;-80
2022/07/11 03:04:09;;;;;;;;;;;;;;;10.26;68.07;100792.13;1769884;80;21145;-80
2022/07/11 03:06:35;;;;;;;;;;;;;;;10.26;68.14;100796.63;1746847;81;20177;-80
2022/07/11 03:09:01;;;;;;;;;;;;;;;10.26;68.21;100793.47;1771286;81;20173;-80
2022/07/11 03:11:27;;;;;;;;;;;;;;;10.30;68.25;100796.66;1771086;81;20332;-80
2022/07/11 03:13:53;;;;;;;;;;;;;;;10.33;68.37;100797.66;1769367;80;20203;-80
2022/07/11 03:16:19;;;;;;;;;;;;;;;10.36;68.50;100798.67;1770788;80;21097;-80
2022/07/11 03:18:45;;;;;;;;;;;;;;;10.40;68.57;100792.03;1766808;81;20227;-80
2022/07/11 03:21:11;;;;;;;;;;;;;;;10.43;68.63;100793.89;1771236;81;20210;-80
2022/07/11 03:23:37;;;;;;;;;;;;;;;10.47;68.67;100797.91;1757133;81;20156;-80
2022/07/11 03:26:03;;;;;;;;;;;;;;;10.51;68.75;100801.94;1764598;81;20156;-80
2022/07/11 03:28:29;;;;;;;;;;;;;;;10.52;68.84;100800.91;1767914;81;21359;-80
2022/07/11 03:30:55;;;;;;;;;;;;;;;10.52;68.88;100806.25;1767396;81;20218;-80
2022/07/11 03:33:21;;;;;;;;;;;;;;;10.50;68.95;100809.59;1768228;81;20203;-80
2022/07/11 03:35:47;;;;;;;;;;;;;;;10.49;69.00;100809.23;1771255;81;20138;-80
2022/07/11 03:38:15;;;;;;;;;;;;;;;10.47;69.06;100808.58;1769437;81;20305;-80
2022/07/11 03:40:40;;;;;;;;;;;;;;;10.47;69.13;100810.41;1753456;81;21133;-80
2022/07/11 03:43:06;;;;;;;;;;;;;;;10.46;69.20;100808.23;1769726;81;20415;-80
2022/07/11 03:45:32;;;;;;;;;;;;;;;10.46;69.20;100809.56;1770972;81;20254;-80
2022/07/11 03:47:58;;;;;;;;;;;;;;;10.47;69.26;100805.07;1770948;81;20645;-80
2022/07/11 03:50:24;;;;;;;;;;;;;;;10.49;69.30;100809.73;1768992;81;20219;-80
2022/07/11 03:52:50;;;;;;;;;;;;;;;10.53;69.32;100810.59;1750369;81;21145;-80
2022/07/11 03:55:15;;;;;;;;;;;;;;;10.59;69.36;100813.63;1745422;81;20261;-80
2022/07/11 03:57:41;;;;;;;;;;;;;;;10.68;69.43;100815.33;1768663;81;20202;-80
2022/07/11 04:00:08;;;;;;;;;;;;;;;11.28;69.79;100806.17;1764779;81;20694;-80
2022/07/11 04:02:35;;;;;;;;;;;;;;;12.72;69.91;100807.52;1765226;81;20661;-80
2022/07/11 04:05:02;;;;;;;;;;;;;;;12.44;68.86;100809.80;1760940;81;21066;-80
2022/07/11 04:07:30;;;;;;;;;;;;;;;12.95;69.23;100806.23;1768005;81;20171;-80
2022/07/11 04:09:56;;;;;;;;;;;;;;;12.69;68.47;100811.05;1742807;81;20187;-80
2022/07/11 04:12:22;;;;;;;;;;;;;;;12.26;68.39;100809.67;1761903;80;20680;-80
2022/07/11 04:14:48;;;;;;;;;;;;;;;12.05;68.44;100816.91;1778448;80;20258;-80
2022/07/11 04:17:14;;;;;;;;;;;;;;;11.95;68.50;100812.23;1778763;80;21235;-80
2022/07/11 04:19:40;;;;;;;;;;;;;;;11.89;68.55;100819.08;1775980;80;20175;-80
2022/07/11 04:22:05;;;;;;;;;;;;;;;11.85;68.58;100815.59;1768480;80;20674;-80
2022/07/11 04:24:31;;;;;;;;;;;;;;;11.84;68.56;100815.25;1753485;80;20170;-81
2022/07/11 04:26:57;;;;;;;;;;;;;;;11.82;68.59;100818.60;1778871;80;20159;-80
2022/07/11 04:29:23;;;;;;;;;;;;;;;11.78;68.65;100817.27;1773628;80;21060;-81
2022/07/11 04:31:52;;;;;;;;;;;;;;;11.75;68.71;100814.93;1778647;80;20262;-80
2022/07/11 04:34:18;;;;;;;;;;;;;;;11.72;68.74;100817.91;1778716;80;20164;-80
2022/07/11 04:36:44;;;;;;;;;;;;;;;11.73;68.78;100814.25;1775013;80;20186;-80
2022/07/11 04:39:10;;;;;;;;;;;;;;;11.76;68.83;100824.59;1766251;80;20156;-80
2022/07/11 04:41:36;;;;;;;;;;;;;;;11.77;68.86;100816.92;1776864;80;21070;-80
2022/07/11 04:44:02;;;;;;;;;;;;;;;11.80;68.92;100815.25;1778654;80;20175;-80
2022/07/11 04:46:29;;;;;;;;;;;;;;;11.83;69.00;100816.24;1757461;80;20193;-80
2022/07/11 04:48:55;;;;;;;;;;;;;;;11.80;69.02;100822.77;1777467;80;20180;-80
2022/07/11 04:51:21;;;;;;;;;;;;;;;11.80;69.11;100816.58;1761890;80;20149;-80
2022/07/11 04:53:47;;;;;;;;;;;;;;;11.78;69.18;100819.44;1753438;80;21815;-80
2022/07/11 04:56:13;;;;;;;;;;;;;;;11.72;69.28;100814.74;1755297;80;20630;-80
2022/07/11 04:58:39;;;;;;;;;;;;;;;11.68;69.43;100828.06;1772611;80;20160;-81
2022/07/11 05:01:05;;;;;;;;;;;;;;;11.64;69.54;100820.57;1778141;80;20147;-80
2022/07/11 05:03:34;;;;;;;;;;;;;;;11.63;69.67;100840.27;1778728;80;20210;-80
2022/07/11 05:06:00;;;;;;;;;;;;;;;11.61;69.80;100841.75;1777441;80;21229;-80
2022/07/11 05:08:26;;;;;;;;;;;;;;;11.60;69.91;100842.77;1760994;80;20201;-80
2022/07/11 05:10:52;;;;;;;;;;;;;;;11.58;70.01;100842.58;1766535;80;20475;-80
2022/07/11 05:13:18;;;;;;;;;;;;;;;11.59;70.16;100836.25;1775478;80;20174;-81
2022/07/11 05:15:44;;;;;;;;;;;;;;;11.60;70.25;100828.58;1768806;81;20226;-80
2022/07/11 05:18:10;;;;;;;;;;;;;;;11.70;70.38;100842.60;1770317;81;21200;-82
2022/07/11 05:20:37;;;;;;;;;;;;;;;11.83;70.48;100838.95;1770598;81;20180;-83
2022/07/11 05:23:03;;;;;;;;;;;;;;;11.93;70.52;100838.28;1758697;81;20480;-82
2022/07/11 05:25:28;;;;;;;;;;;;;;;12.03;70.60;100831.76;1771037;81;20220;-83
2022/07/11 05:27:54;;;;;;;;;;;;;;;12.23;70.68;100834.09;1770352;81;20163;-83
2022/07/11 05:30:20;;;;;;;;;;;;;;;12.64;70.74;100830.79;1771055;81;21207;-84
2022/07/11 05:32:46;;;;;;;;;;;;;;;12.83;70.79;100839.77;1765790;81;20211;-83
2022/07/11 05:35:12;;;;;;;;;;;;;;;12.91;70.80;100831.71;1770873;81;20208;-84
2022/07/11 05:37:38;;;;;;;;;;;;;;;13.12;70.83;100829.30;1760110;80;20147;-84
2022/07/11 05:40:04;;;;;;;;;;;;;;;13.74;70.75;100826.52;1755169;81;20305;-84
2022/07/11 05:42:31;;;;;;;;;;;;;;;14.32;70.66;100840.58;1770779;81;21985;-85
2022/07/11 05:44:57;;;;;;;;;;;;;;;14.75;70.48;100837.09;1771097;81;20464;-85
2022/07/11 05:47:23;;;;;;;;;;;;;;;15.25;70.27;100839.47;1760206;80;20183;-85
2022/07/11 05:49:48;;;;;;;;;;;;;;;15.64;70.01;100840.44;1767426;81;20266;-82
2022/07/11 05:52:14;;;;;;;;;;;;;;;15.99;69.70;100839.52;1769120;80;20273;-82
2022/07/11 05:54:40;;;;;;;;;;;;;;;16.22;69.32;100830.69;1759708;81;21165;-83
2022/07/11 05:57:06;;;;;;;;;;;;;;;16.46;68.99;100834.30;1754168;80;20190;-83
2022/07/11 05:59:32;;;;;;;;;;;;;;;16.77;68.71;100835.23;1770634;81;20677;-83
2022/07/11 06:01:58;;;;;;;;;;;;;;;16.86;68.18;100835.88;1758982;80;20694;-83
2022/07/11 06:04:24;;;;;;;;;;;;;;;17.13;67.90;100829.59;1766134;81;20286;-83
2022/07/11 06:06:49;;;;;;;;;;;;;;;17.34;67.39;100834.00;1767862;80;21043;-83
2022/07/11 06:09:15;;;;;;;;;;;;;;;17.31;67.07;100827.13;1753227;81;20193;-83
2022/07/11 06:11:41;;;;;;;;;;;;;;;17.76;66.79;100831.52;1760611;81;20249;-83
2022/07/11 06:14:07;;;;;;;;;;;;;;;17.55;66.30;100835.71;1759394;80;20211;-82
2022/07/11 06:16:33;;;;;;;;;;;;;;;17.00;65.98;100840.29;1769720;80;20175;-83
2022/07/11 06:18:59;;;;;;;;;;;;;;;16.73;65.89;100838.00;1757896;80;22020;-82
2022/07/11 06:21:25;;;;;;;;;;;;;;;16.49;65.71;100842.48;1748383;80;20284;-82
2022/07/11 06:23:51;;;;;;;;;;;;;;;16.36;65.64;100848.59;1765560;80;20149;-82
2022/07/11 06:26:17;;;;;;;;;;;;;;;16.24;65.58;100844.80;1737718;80;20238;-82
2022/07/11 06:28:43;;;;;;;;;;;;;;;16.08;65.47;100849.64;1773695;80;20227;-82
2022/07/11 06:31:09;;;;;;;;;;;;;;;15.90;65.40;100851.45;1771949;80;21138;-82
2022/07/11 06:33:35;;;;;;;;;;;;;;;15.80;65.43;100860.33;1743914;80;20200;-82
2022/07/11 06:36:01;;;;;;;;;;;;;;;15.77;65.39;100856.69;1758426;80;20215;-82
2022/07/11 06:38:28;;;;;;;;;;;;;;;15.72;65.35;100849.73;1770777;80;20147;-82
2022/07/11 06:40:54;;;;;;;;;;;;;;;15.65;65.36;100854.20;1764419;80;20180;-81
2022/07/11 06:43:20;;;;;;;;;;;;;;;15.62;65.44;100857.28;1771063;80;20954;-82
2022/07/11 06:45:46;;;;;;;;;;;;;;;15.66;65.45;100852.66;1771670;80;20182;-82
2022/07/11 06:48:12;;;;;;;;;;;;;;;15.77;65.50;100855.34;1774399;80;20157;-82
2022/07/11 06:50:38;;;;;;;;;;;;;;;15.91;65.50;100857.13;1768461;80;20183;-82
2022/07/11 06:53:04;;;;;;;;;;;;;;;15.99;65.45;100858.35;1757890;80;20721;-82
2022/07/11 06:55:30;;;;;;;;;;;;;;;16.09;65.43;100859.36;1752716;80;21098;-82
2022/07/11 06:57:56;;;;;;;;;;;;;;;16.05;65.40;100861.59;1776852;80;20169;-82
2022/07/11 07:00:22;;;;;;;;;;;;;;;16.08;65.41;100855.02;1771329;80;20623;-82
2022/07/11 07:02:48;;;;;;;;;;;;;;;16.06;65.34;100849.83;1772997;79;20166;-82
2022/07/11 07:05:14;;;;;;;;;;;;;;;16.05;65.37;100853.53;1770617;80;20187;-82
2022/07/11 07:07:39;;;;;;;;;;;;;;;15.95;65.34;100859.76;1776207;79;21124;-82
2022/07/11 07:10:06;;;;;;;;;;;;;;;15.97;65.36;100858.53;1761972;79;20190;-82
2022/07/11 07:12:32;;;;;;;;;;;;;;;16.03;65.35;100862.32;1749242;80;20187;-82
2022/07/11 07:14:59;;;;;;;;;;;;;;;16.15;65.37;100856.72;1772161;79;20168;-82
2022/07/11 07:17:26;;;;;;;;;;;;;;;16.27;65.32;100858.37;1771042;81;20461;-82
2022/07/11 07:19:51;;;;;;;;;;;;;;;16.47;65.26;100864.20;1760424;81;21999;-83
2022/07/11 07:22:17;;;;;;;;;;;;;;;16.67;65.21;100852.78;1757763;80;20167;-83
2022/07/11 07:24:43;;;;;;;;;;;;;;;16.73;65.10;100853.32;1753715;80;20274;-84
2022/07/11 07:27:09;;;;;;;;;;;;;;;16.73;64.98;100860.89;1754301;80;20356;-85
2022/07/11 07:29:35;;;;;;;;;;;;;;;16.79;64.95;100861.95;1758551;80;20318;-82
2022/07/11 07:32:02;;;;;;;;;;;;;;;16.94;64.84;100864.84;1754423;80;20692;-83
2022/07/11 07:34:28;;;;;;;;;;;;;;;17.03;64.72;100861.44;1752159;80;20230;-82
2022/07/11 07:36:54;;;;;;;;;;;;;;;17.19;64.65;100855.72;1752734;80;20211;-82
2022/07/11 07:39:20;;;;;;;;;;;;;;;17.32;64.48;100859.80;1749697;80;20219;-82
2022/07/11 07:41:46;;;;;;;;;;;;;;;17.41;64.39;100861.30;1747926;80;20762;-82
2022/07/11 07:44:11;;;;;;;;;;;;;;;17.56;64.27;100862.48;1743173;80;22015;-83
2022/07/11 07:46:37;;;;;;;;;;;;;;;17.63;64.12;100862.50;1756184;80;20655;-84
2022/07/11 07:49:03;;;;;;;;;;;;;;;17.60;63.91;100861.56;1747659;80;20282;-81
2022/07/11 07:51:29;;;;;;;;;;;;;;;17.89;63.89;100855.30;1748743;80;20379;-83
2022/07/11 07:53:55;;;;;;;;;;;;;;;18.11;63.72;100855.09;1759228;80;20479;-83
2022/07/11 07:56:21;;;;;;;;;;;;;;;18.06;63.38;100850.31;1748179;80;21196;-84
2022/07/11 07:58:47;;;;;;;;;;;;;;;18.22;63.33;100855.31;1746446;80;20221;-83
2022/07/11 08:03:57;;;;;;;;;;;;;;;18.98;62.88;100844.78;1750564;80;20161;-81
2022/07/11 08:06:23;;;;;;;;;;;;;;;19.23;62.34;100852.47;1750898;80;20229;-82
2022/07/11 08:08:49;;;;;;;;;;;;;;;19.59;62.07;100847.84;1747524;80;21771;-82
2022/07/11 08:11:16;;;;;;;;;;;;;;;19.77;61.52;100847.09;1745935;80;20450;-84
2022/07/11 08:13:42;;;;;;;;;;;;;;;19.96;61.28;100851.52;1748502;80;20501;-80
2022/07/11 08:16:08;;;;;;;;;;;;;;;20.24;61.12;100849.20;1761828;79;20216;-81
2022/07/11 08:18:34;;;;;;;;;;;;;;;20.09;60.49;100851.96;1763426;79;20466;-82
2022/07/11 08:21:00;;;;;;;;;;;;;;;19.82;59.95;100853.50;1758453;79;21101;-84
2022/07/11 08:23:26;;;;;;;;;;;;;;;19.72;59.51;100856.39;1761267;80;20250;-84
2022/07/11 08:25:52;;;;;;;;;;;;;;;19.77;59.41;100857.92;1766164;80;20590;-85
2022/07/11 08:28:18;;;;;;;;;;;;;;;19.75;59.19;100862.71;1764768;80;20546;-83
2022/07/11 08:30:44;;;;;;;;;;;;;;;19.38;58.83;100863.85;1774585;80;20560;-82
2022/07/11 08:33:11;;;;;;;;;;;;;;;19.21;58.93;100857.25;1752548;80;21140;-83
2022/07/11 08:35:37;;;;;;;;;;;;;;;19.32;58.92;100847.11;1771160;80;20147;-83
2022/07/11 08:38:03;;;;;;;;;;;;;;;19.75;58.92;100854.59;1767855;79;20202;-83
2022/07/11 08:40:28;;;;;;;;;;;;;;;19.60;58.43;100853.53;1761777;80;20159;-84
2022/07/11 08:42:56;;;;;;;;;;;;;;;19.46;58.50;100851.16;1773817;80;20286;-84
2022/07/11 08:45:22;;;;;;;;;;;;;;;19.47;58.33;100850.08;1763647;80;21702;-83
2022/07/11 08:47:48;;;;;;;;;;;;;;;19.73;58.47;100853.99;1765046;80;20166;-84
2022/07/11 08:50:14;;;;;;;;;;;;;;;20.42;58.31;100839.80;1772328;80;20238;-83
2022/07/11 08:52:40;;;;;;;;;;;;;;;20.71;57.68;100845.03;1766356;80;20144;-83
2022/07/11 08:55:07;;;;;;;;;;;;;;;20.67;57.20;100836.20;1771121;80;20171;-84
2022/07/11 08:57:35;;;;;;;;;;;;;;;20.81;57.15;100843.14;1770879;80;22014;-84
2022/07/11 09:00:00;;;;;;;;;;;;;;;21.11;57.05;100842.69;1757084;80;20466;-86
2022/07/11 09:02:26;;;;;;;;;;;;;;;21.47;56.81;100835.53;1770827;80;20226;-86
2022/07/11 09:04:52;;;;;;;;;;;;;;;21.54;56.15;100829.48;1757146;80;20599;-86
2022/07/11 09:07:18;;;;;;;;;;;;;;;21.11;55.84;100821.55;1753246;80;20216;-85
2022/07/11 09:09:44;;;;;;;;;;;;;;;20.88;55.76;100837.95;1775878;79;21272;-85
2022/07/11 09:12:15;;;;;;;;;;;;;;;20.45;55.59;100837.16;1780175;79;20181;-86
2022/07/11 09:14:46;;;;;;;;;;;;;;;20.41;55.70;100839.48;1752668;80;20183;-85
2022/07/11 09:17:12;;;;;;;;;;;;;;;20.32;55.69;100834.06;1753747;81;20591;-85
2022/07/11 09:19:39;;;;;;;;;;;;;;;20.33;55.65;100831.66;1766583;81;20133;-86
2022/07/11 09:25:21;;;;;;;;;;;;;;;20.94;55.40;100821.28;1767380;81;20469;-83
2022/07/11 09:28:01;;;;;;;;;;;;;;;21.16;55.18;100810.30;1764490;80;20152;-85
2022/07/11 09:30:31;;;;;;;;;;;;;;;21.43;55.00;100801.80;1752844;81;20187;-83
2022/07/11 09:32:59;;;;;;;;;;;;;;;21.27;54.78;100809.52;1764948;81;20188;-84
2022/07/11 09:35:28;;;;;;;;;;;;;;;21.46;54.72;100805.41;1768825;81;21923;-83
2022/07/11 09:37:54;;;;;;;;;;;;;;;21.35;54.25;100816.00;1762878;80;20165;-85
2022/07/11 09:40:21;;;;;;;;;;;;;;;21.05;54.07;100808.32;1762121;80;20261;-84
2022/07/11 09:42:50;;;;;;;;;;;;;;;20.63;53.66;100807.89;1761597;81;20316;-83
2022/07/11 09:45:17;;;;;;;;;;;;;;;20.39;53.88;100813.16;1760990;81;20480;-84
2022/07/11 09:47:44;;;;;;;;;;;;;;;20.65;53.93;100812.58;1749726;81;21011;-84
2022/07/11 09:50:10;;;;;;;;;;;;;;;20.69;53.56;100808.37;1750204;80;20142;-83
2022/07/11 09:52:36;;;;;;;;;;;;;;;20.44;53.23;100806.52;1766476;81;20250;-84
2022/07/11 09:55:04;;;;;;;;;;;;;;;20.42;53.13;100801.86;1764741;80;20266;-83
2022/07/11 09:57:36;;;;;;;;;;;;;;;20.77;52.84;100793.13;1765874;80;20227;-83
2022/07/11 10:00:04;;;;;;;;;;;;;;;20.64;52.23;100792.77;1754218;81;21154;-84
2022/07/11 10:02:30;;;;;;;;;;;;;;;20.49;52.06;100795.54;1765395;80;20153;-83
2022/07/11 10:04:57;;;;;;;;;;;;;;;20.32;52.11;100805.62;1712963;83;20206;-84
2022/07/11 10:07:23;;;;;;;;;;;;;;;20.07;52.05;100807.48;1776924;80;20144;-84
2022/07/11 10:09:49;;;;;;;;;;;;;;;19.80;52.11;100808.77;1770747;81;20301;-84
2022/07/11 10:12:16;;;;;;;;;;;;;;;19.75;52.36;100808.58;1756579;81;21102;-84
2022/07/11 10:14:42;;;;;;;;;;;;;;;19.97;52.51;100809.03;1758817;80;20185;-84
2022/07/11 10:17:11;;;;;;;;;;;;;;;19.97;52.46;100817.99;1748996;81;20175;-84
2022/07/11 10:19:47;;;;;;;;;;;;;;;19.63;52.56;100839.59;1750897;81;20166;-84
2022/07/11 10:22:26;;;;;;;;;;;;;;;19.08;52.90;100839.74;1731412;82;20191;-84
2022/07/11 10:25:14;;;;;;;;;;;;;;;18.39;53.39;100829.53;1752188;81;21839;-85
2022/07/11 10:27:44;;;;;;;;;;;;;;;17.99;54.05;100817.09;1638337;85;20184;-85
2022/07/11 10:30:09;;;;;;;;;;;;;;;17.73;54.58;100813.05;1712869;82;20147;-85
2022/07/11 10:32:57;;;;;;;;;;;;;;;17.67;54.99;100807.11;1751972;82;20670;-84
2022/07/11 10:35:23;;;;;;;;;;;;;;;17.75;55.41;100809.61;1738890;82;20187;-84
2022/07/11 10:37:53;;;;;;;;;;;;;;;18.23;55.86;100806.16;1751922;82;21196;-84
2022/07/11 10:40:47;;;;;;;;;;;;;;;18.63;56.09;100809.66;1754200;80;20189;-84
2022/07/11 10:43:33;;;;;;;;;;;;;;;19.00;56.36;100807.53;1758007;81;20190;-84
2022/07/11 10:46:09;;;;;;;;;;;;;;;19.61;56.66;100804.31;1765326;81;20429;-84
2022/07/11 10:48:55;;;;;;;;;;;;;;;19.91;56.58;100799.94;1760725;80;20152;-84
2022/07/11 10:51:26;;;;;;;;;;;;;;;19.98;56.60;100795.81;1726098;82;22217;-84
2022/07/11 10:53:53;;;;;;;;;;;;;;;20.25;56.86;100797.22;1762967;81;20449;-84
2022/07/11 10:56:52;;;;;;;;;;;;;;;20.46;56.68;100797.34;1762556;80;20181;-84
2022/07/11 10:59:18;;;;;;;;;;;;;;;20.32;56.49;100812.39;1764304;81;20204;-83
2022/07/11 11:02:10;;;;;;;;;;;;;;;19.83;56.02;100834.03;1764668;81;20204;-84
2022/07/11 11:05:00;;;;;;;;;;;;;;;19.27;55.69;100859.12;1760394;80;22056;-83
2022/07/11 11:07:43;;;;;;;;;;;;;;;18.41;55.85;100877.41;1765553;80;20137;-84
2022/07/11 11:10:33;;;;;;;;;;;;;;;17.74;56.53;100883.48;1763278;81;20165;-84
2022/07/11 11:13:14;;;;;;;;;;;;;;;17.34;57.04;100875.80;1759664;81;20415;-83
2022/07/11 11:15:48;;;;;;;;;;;;;;;16.95;57.66;100879.98;1758446;81;20149;-83
2022/07/11 11:18:27;;;;;;;;;;;;;;;16.62;58.46;100888.88;1745112;80;22083;-83
2022/07/11 11:21:04;;;;;;;;;;;;;;;16.50;59.14;100891.28;1748208;80;20157;-83
2022/07/11 11:23:34;;;;;;;;;;;;;;;16.52;59.76;100883.82;1724821;82;20174;-83
2022/07/11 11:26:07;;;;;;;;;;;;;;;16.53;60.25;100885.50;1742002;80;20148;-83
2022/07/11 11:28:33;;;;;;;;;;;;;;;16.49;60.80;100885.05;1735226;80;20156;-84
2022/07/11 11:31:01;;;;;;;;;;;;;;;16.47;61.22;100895.68;1747520;81;22091;-83
2022/07/11 11:33:29;;;;;;;;;;;;;;;16.56;61.53;100886.47;1733184;81;20137;-84
2022/07/11 11:36:09;;;;;;;;;;;;;;;16.77;61.81;100887.75;1749613;80;20160;-84
2022/07/11 11:38:38;;;;;;;;;;;;;;;17.09;61.85;100889.47;1748397;80;20148;-84
2022/07/11 11:41:07;;;;;;;;;;;;;;;17.44;61.97;100890.55;1748588;82;20173;-84
2022/07/11 11:43:37;;;;;;;;;;;;;;;17.75;62.02;100894.09;1744556;80;21734;-85
2022/07/11 11:46:02;;;;;;;;;;;;;;;18.04;61.93;100894.23;1749534;82;20172;-85
2022/07/11 11:48:29;;;;;;;;;;;;;;;18.18;61.78;100894.56;1749727;82;20237;-84
2022/07/11 11:51:08;;;;;;;;;;;;;;;18.46;61.61;100884.37;1749979;82;20157;-85
2022/07/11 11:53:40;;;;;;;;;;;;;;;18.41;61.38;100885.51;1759279;80;20170;-83
2022/07/11 11:56:32;;;;;;;;;;;;;;;18.43;61.19;100884.80;1748507;82;21153;-84
2022/07/11 11:59:12;;;;;;;;;;;;;;;18.54;61.00;100887.93;1748556;80;20146;-84
2022/07/11 12:01:39;;;;;;;;;;;;;;;18.52;60.69;100892.69;1749179;80;20184;-84
2022/07/11 12:04:07;;;;;;;;;;;;;;;18.39;60.38;100886.25;1749815;81;20125;-84
2022/07/11 12:06:34;;;;;;;;;;;;;;;18.55;60.34;100884.16;1743386;80;20196;-84
2022/07/11 12:09:09;;;;;;;;;;;;;;;18.88;60.25;100888.48;1738635;82;21078;-82
2022/07/11 12:11:36;;;;;;;;;;;;;;;19.18;60.00;100890.13;1747874;81;20189;-84
2022/07/11 12:14:03;;;;;;;;;;;;;;;19.57;59.82;100892.38;1746154;80;20137;-84
2022/07/11 12:16:43;;;;;;;;;;;;;;;19.82;59.61;100895.98;1747868;80;20137;-89
2022/07/11 12:19:16;;;;;;;;;;;;;;;19.92;59.33;100887.69;1752932;80;20161;-89
2022/07/11 12:21:44;;;;;;;;;;;;;;;19.98;59.12;100887.34;1757419;80;21132;-89
2022/07/11 12:24:17;;;;;;;;;;;;;;;20.04;58.90;100885.63;1761759;80;20472;-90
2022/07/11 12:26:43;;;;;;;;;;;;;;;20.07;58.69;100887.38;1754866;80;20156;-90
2022/07/11 12:29:12;;;;;;;;;;;;;;;20.44;58.63;100876.16;1757777;80;20182;-90
2022/07/11 12:31:50;;;;;;;;;;;;;;;20.61;58.12;100879.12;1757204;81;20211;-89
2022/07/11 12:34:18;;;;;;;;;;;;;;;20.37;57.54;100876.20;1756870;80;21186;-88
2022/07/11 12:36:45;;;;;;;;;;;;;;;20.27;57.39;100863.69;1750011;81;20151;-89
2022/07/11 12:39:28;;;;;;;;;;;;;;;20.19;57.11;100868.02;1739519;81;20148;-89
2022/07/11 12:41:55;;;;;;;;;;;;;;;20.32;56.96;100862.51;1751280;81;20172;-90
2022/07/11 12:47:07;;;;;;;;;;;;;;;20.19;56.01;100868.02;1739723;80;21770;-88
2022/07/11 12:49:33;;;;;;;;;;;;;;;19.87;55.76;100863.16;1752702;80;20258;-89